createdAt,value
2022-09-25T00:01:32.491Z,2.20
2022-09-25T00:04:02.898Z,2.50
2022-09-25T00:06:32.982Z,2.90
2022-09-25T00:09:03.048Z,2.50
2022-09-25T00:11:33.743Z,2.93
2022-09-25T00:14:02.939Z,2.23
2022-09-25T00:16:33.077Z,2.70
2022-09-25T00:19:20.782Z,2.50
2022-09-25T00:21:53.097Z,2.43
2022-09-25T00:24:22.478Z,2.30
2022-09-25T00:26:50.663Z,2.47
2022-09-25T00:29:21.580Z,2.60
2022-09-25T00:31:50.186Z,2.40
2022-09-25T00:34:19.691Z,2.33
2022-09-25T00:36:47.809Z,2.30
2022-09-25T00:39:16.557Z,2.40
2022-09-25T00:41:44.739Z,2.23
2022-09-25T00:44:56.987Z,2.53
2022-09-25T00:47:32.080Z,2.40
2022-09-25T00:50:05.842Z,2.57
2022-09-25T00:52:33.989Z,2.53
2022-09-25T00:55:06.789Z,2.53
2022-09-25T00:57:38.095Z,2.47
2022-09-25T01:00:09.853Z,2.77
2022-09-25T01:02:42.287Z,2.47
2022-09-25T01:05:14.996Z,2.53
2022-09-25T01:07:46.011Z,2.80
2022-09-25T01:10:16.039Z,2.63
2022-09-25T01:12:46.833Z,2.47
2022-09-25T01:15:18.429Z,2.90
2022-09-25T01:17:57.319Z,2.80
2022-09-25T01:20:43.982Z,2.47
2022-09-25T01:23:29.606Z,2.67
2022-09-25T01:26:15.956Z,2.20
2022-09-25T01:29:02.504Z,2.53
2022-09-25T01:31:36.511Z,2.67
2022-09-25T01:34:13.597Z,2.13
2022-09-25T01:36:49.243Z,2.70
2022-09-25T01:39:22.770Z,2.73
2022-09-25T01:41:55.649Z,2.63
2022-09-25T01:44:30.307Z,2.70
2022-09-25T01:47:07.516Z,2.40
2022-09-25T01:49:39.843Z,2.33
2022-09-25T01:52:14.195Z,2.43
2022-09-25T01:54:45.606Z,2.20
2022-09-25T01:57:18.959Z,2.53
2022-09-25T01:59:55.347Z,2.30
2022-09-25T02:02:29.260Z,2.70
2022-09-25T02:05:00.847Z,2.90
2022-09-25T02:07:34.428Z,3.40
2022-09-25T02:10:06.743Z,2.90
2022-09-25T02:12:41.451Z,2.63
2022-09-25T02:15:14.613Z,2.77
2022-09-25T02:18:06.730Z,3.00
2022-09-25T02:20:41.941Z,2.60
2022-09-25T02:23:18.876Z,2.57
2022-09-25T02:25:56.452Z,2.73
2022-09-25T02:28:24.860Z,2.30
2022-09-25T02:30:57.621Z,2.20
2022-09-25T02:33:26.797Z,2.50
2022-09-25T02:35:55.331Z,2.63
2022-09-25T02:38:23.601Z,2.97
2022-09-25T02:40:57.403Z,2.70
2022-09-25T02:43:38.383Z,2.70
2022-09-25T02:46:15.264Z,2.90
2022-09-25T02:48:52.490Z,2.53
2022-09-25T02:51:30.478Z,2.83
2022-09-25T02:54:06.647Z,2.73
2022-09-25T02:56:38.575Z,3.00
2022-09-25T02:59:10.204Z,3.63
2022-09-25T03:01:43.864Z,3.00
2022-09-25T03:04:13.098Z,2.50
2022-09-25T03:06:42.558Z,2.80
2022-09-25T03:09:11.787Z,2.40
2022-09-25T03:11:41.561Z,2.63
2022-09-25T03:14:10.556Z,2.73
2022-09-25T03:16:46.317Z,2.40
2022-09-25T03:19:15.311Z,2.37
2022-09-25T03:21:43.576Z,2.93
2022-09-25T03:24:11.862Z,2.60
2022-09-25T03:26:40.610Z,3.00
2022-09-25T03:29:09.226Z,2.90
2022-09-25T03:31:37.590Z,2.93
2022-09-25T03:34:07.159Z,2.43
2022-09-25T03:36:35.765Z,3.20
2022-09-25T03:39:04.324Z,2.73
2022-09-25T03:41:35.222Z,2.33
2022-09-25T03:44:04.329Z,2.80
2022-09-25T03:46:35.731Z,3.20
2022-09-25T03:49:05.940Z,3.10
2022-09-25T03:51:35.286Z,2.57
2022-09-25T03:54:04.482Z,3.10
2022-09-25T03:56:32.965Z,3.13
2022-09-25T03:59:01.706Z,2.73
2022-09-25T04:01:30.148Z,2.80
2022-09-25T04:04:01.119Z,2.70
2022-09-25T04:06:31.061Z,3.13
2022-09-25T04:08:59.200Z,2.57
2022-09-25T04:11:27.291Z,2.77
2022-09-25T04:13:57.169Z,2.70
2022-09-25T04:16:26.025Z,2.97
2022-09-25T04:18:54.229Z,2.73
2022-09-25T04:21:22.670Z,3.10
2022-09-25T04:24:06.204Z,3.50
2022-09-25T04:26:35.676Z,3.10
2022-09-25T04:29:03.970Z,3.40
2022-09-25T04:31:32.501Z,2.90
2022-09-25T04:34:00.225Z,3.50
2022-09-25T04:36:28.381Z,3.23
2022-09-25T04:38:57.914Z,3.23
2022-09-25T04:41:26.496Z,2.97
2022-09-25T04:43:54.723Z,3.03
2022-09-25T04:46:23.106Z,2.90
2022-09-25T04:48:51.946Z,2.77
2022-09-25T04:51:20.090Z,3.30
2022-09-25T04:53:48.194Z,2.80
2022-09-25T04:56:18.111Z,2.97
2022-09-25T04:58:47.557Z,2.80
2022-09-25T05:01:16.961Z,3.10
2022-09-25T05:03:45.410Z,3.20
2022-09-25T05:06:13.678Z,3.07
2022-09-25T05:08:41.833Z,3.07
2022-09-25T05:11:10.287Z,3.10
2022-09-25T05:13:40.121Z,2.90
2022-09-25T05:16:08.880Z,3.20
2022-09-25T05:18:37.231Z,3.87
2022-09-25T05:21:06.167Z,3.20
2022-09-25T05:23:34.267Z,3.73
2022-09-25T05:26:03.046Z,3.43
2022-09-25T05:28:31.236Z,3.87
2022-09-25T05:31:03.815Z,3.40
2022-09-25T05:33:32.809Z,3.40
2022-09-25T05:36:02.800Z,3.47
2022-09-25T05:38:34.435Z,3.47
2022-09-25T05:41:05.175Z,3.83
2022-09-25T05:43:34.338Z,3.40
2022-09-25T05:46:04.273Z,3.43
2022-09-25T05:48:32.589Z,4.03
2022-09-25T05:51:00.914Z,4.40
2022-09-25T05:53:31.083Z,3.53
2022-09-25T05:56:00.285Z,3.70
2022-09-25T05:58:30.206Z,3.20
2022-09-25T06:01:01.602Z,3.43
2022-09-25T06:03:31.473Z,3.37
2022-09-25T06:06:00.163Z,2.93
2022-09-25T06:08:31.486Z,3.23
2022-09-25T06:11:00.802Z,3.40
2022-09-25T06:13:30.198Z,3.67
2022-09-25T06:15:58.619Z,3.30
2022-09-25T06:18:27.777Z,3.63
2022-09-25T06:21:02.862Z,3.60
2022-09-25T06:23:31.657Z,3.70
2022-09-25T06:26:04.127Z,3.43
2022-09-25T06:28:32.519Z,3.10
2022-09-25T06:31:02.343Z,3.30
2022-09-25T06:33:31.224Z,3.47
2022-09-25T06:36:01.487Z,3.17
2022-09-25T06:38:29.836Z,3.70
2022-09-25T06:41:00.885Z,3.93
2022-09-25T06:43:30.133Z,5.10
2022-09-25T06:46:03.930Z,4.73
2022-09-25T06:48:32.729Z,4.80
2022-09-25T06:51:02.846Z,4.70
2022-09-25T06:53:31.477Z,5.00
2022-09-25T06:56:00.971Z,5.13
2022-09-25T06:58:30.549Z,5.50
2022-09-25T07:00:59.609Z,5.10
2022-09-25T07:03:45.893Z,4.93
2022-09-25T07:06:18.272Z,4.87
2022-09-25T07:08:48.204Z,4.90
2022-09-25T07:11:20.298Z,4.30
2022-09-25T07:13:53.175Z,4.07
2022-09-25T07:16:24.337Z,3.70
2022-09-25T07:18:55.158Z,3.00
2022-09-25T07:21:28.113Z,3.30
2022-09-25T07:23:57.504Z,4.33
2022-09-25T07:26:28.347Z,2.50
2022-09-25T07:28:58.793Z,2.47
2022-09-25T07:31:29.417Z,2.53
2022-09-25T07:34:00.262Z,2.03
2022-09-25T07:36:30.760Z,2.03
2022-09-25T07:38:58.827Z,1.93
2022-09-25T07:41:27.189Z,1.90
2022-09-25T07:44:11.937Z,1.70
2022-09-25T07:46:46.094Z,1.70
2022-09-25T07:49:15.038Z,2.13
2022-09-25T07:51:44.558Z,1.80
2022-09-25T07:54:12.864Z,1.90
2022-09-25T07:56:41.286Z,1.80
2022-09-25T07:59:09.398Z,1.60
2022-09-25T08:01:42.757Z,1.80
2022-09-25T08:04:12.921Z,1.97
2022-09-25T08:06:41.243Z,1.80
2022-09-25T08:09:11.778Z,1.60
2022-09-25T08:11:40.242Z,2.43
2022-09-25T08:14:08.494Z,1.23
2022-09-25T08:16:36.823Z,1.57
2022-09-25T08:19:05.617Z,1.40
2022-09-25T08:21:35.091Z,1.60
2022-09-25T08:24:03.732Z,1.10
2022-09-25T08:26:33.630Z,1.20
2022-09-25T08:29:01.873Z,1.00
2022-09-25T08:31:30.106Z,1.20
2022-09-25T08:34:14.909Z,1.00
2022-09-25T08:36:49.865Z,1.13
2022-09-25T08:39:18.797Z,1.00
2022-09-25T08:41:51.554Z,1.20
2022-09-25T08:44:27.629Z,1.20
2022-09-25T08:47:19.764Z,1.20
2022-09-25T08:49:55.207Z,1.20
2022-09-25T08:52:23.590Z,0.93
2022-09-25T08:54:52.455Z,1.00
2022-09-25T08:57:35.306Z,1.08
2022-09-25T09:00:06.527Z,1.20
2022-09-25T09:02:42.735Z,0.90
2022-09-25T09:05:21.538Z,1.40
2022-09-25T09:07:55.061Z,1.10
2022-09-25T09:10:31.509Z,1.13
2022-09-25T09:13:05.896Z,1.10
2022-09-25T09:15:38.663Z,0.93
2022-09-25T09:18:18.174Z,1.10
2022-09-25T09:20:52.439Z,1.57
2022-09-25T09:23:23.188Z,1.10
2022-09-25T09:26:01.212Z,1.20
2022-09-25T09:28:50.195Z,1.37
2022-09-25T09:31:26.875Z,1.00
2022-09-25T09:34:03.281Z,1.07
2022-09-25T09:36:38.798Z,1.03
2022-09-25T09:39:17.812Z,0.90
2022-09-25T09:41:56.484Z,1.03
2022-09-25T09:44:41.125Z,0.90
2022-09-25T09:47:22.622Z,1.00
2022-09-25T09:49:57.332Z,1.03
2022-09-25T09:52:31.141Z,1.10
2022-09-25T09:55:04.454Z,1.03
2022-09-25T09:57:38.941Z,1.03
2022-09-25T10:00:17.030Z,0.90
2022-09-25T10:02:49.925Z,1.03
2022-09-25T10:05:24.842Z,1.23
2022-09-25T10:07:53.841Z,1.10
2022-09-25T10:10:23.734Z,1.07
2022-09-25T10:12:54.190Z,1.10
2022-09-25T10:15:31.035Z,1.10
2022-09-25T10:18:02.536Z,1.00
2022-09-25T10:20:40.173Z,0.97
2022-09-25T10:23:18.848Z,1.03
2022-09-25T10:25:48.740Z,1.00
2022-09-25T10:28:28.578Z,1.00
2022-09-25T10:30:59.710Z,1.10
2022-09-25T10:33:30.855Z,1.02
2022-09-25T10:35:59.443Z,1.45
2022-09-25T10:38:37.749Z,0.80
2022-09-25T10:41:09.564Z,0.85
2022-09-25T10:43:52.485Z,0.90
2022-09-25T10:46:44.010Z,0.80
2022-09-25T10:49:42.585Z,1.23
2022-09-25T10:52:13.965Z,1.10
2022-09-25T10:54:45.485Z,1.10
2022-09-25T10:57:23.618Z,0.93
2022-09-25T10:59:53.050Z,1.40
2022-09-25T11:02:34.262Z,1.50
2022-09-25T11:05:02.946Z,1.20
2022-09-25T11:07:33.070Z,1.10
2022-09-25T11:10:01.621Z,1.20
2022-09-25T11:12:30.635Z,1.00
2022-09-25T11:15:02.588Z,1.03
2022-09-25T11:17:38.240Z,1.20
2022-09-25T11:20:32.079Z,1.40
2022-09-25T11:23:15.253Z,1.20
2022-09-25T11:25:49.397Z,1.23
2022-09-25T11:28:28.007Z,1.37
2022-09-25T11:31:02.628Z,1.50
2022-09-25T11:33:42.366Z,1.27
2022-09-25T11:36:18.550Z,1.10
2022-09-25T11:39:06.525Z,1.50
2022-09-25T11:41:41.389Z,1.10
2022-09-25T11:44:22.638Z,1.23
2022-09-25T11:47:00.155Z,1.00
2022-09-25T11:49:32.033Z,1.20
2022-09-25T11:52:26.551Z,1.50
2022-09-25T11:55:24.490Z,1.27
2022-09-25T11:58:02.071Z,1.30
2022-09-25T12:00:41.731Z,1.30
2022-09-25T12:03:30.042Z,1.10
2022-09-25T12:06:21.871Z,1.30
2022-09-25T12:09:07.331Z,1.17
2022-09-25T12:11:45.800Z,1.10
2022-09-25T12:14:22.223Z,1.17
2022-09-25T12:16:58.181Z,1.00
2022-09-25T12:19:39.493Z,1.10
2022-09-25T12:22:17.768Z,1.00
2022-09-25T12:24:57.493Z,1.27
2022-09-25T12:27:42.118Z,1.30
2022-09-25T12:30:18.973Z,1.20
2022-09-25T12:33:15.787Z,1.20
2022-09-25T12:35:54.238Z,1.30
2022-09-25T12:38:31.364Z,1.07
2022-09-25T12:41:08.699Z,1.00
2022-09-25T12:43:42.476Z,1.10
2022-09-25T12:46:17.807Z,1.17
2022-09-25T12:48:51.410Z,1.20
2022-09-25T12:51:23.756Z,1.33
2022-09-25T12:53:58.512Z,1.40
2022-09-25T12:56:32.737Z,1.33
2022-09-25T12:59:13.715Z,1.30
2022-09-25T13:01:53.646Z,1.50
2022-09-25T13:04:36.170Z,1.43
2022-09-25T13:07:15.885Z,1.07
2022-09-25T13:09:47.138Z,1.40
2022-09-25T13:12:27.275Z,1.50
2022-09-25T13:14:59.839Z,1.30
2022-09-25T13:17:28.385Z,1.43
2022-09-25T13:20:16.614Z,1.30
2022-09-25T13:22:45.016Z,1.20
2022-09-25T13:25:18.671Z,1.30
2022-09-25T13:27:48.418Z,1.07
2022-09-25T13:30:23.132Z,1.10
2022-09-25T13:32:53.479Z,1.23
2022-09-25T13:35:23.654Z,1.20
2022-09-25T13:38:09.550Z,1.30
2022-09-25T13:40:43.081Z,1.20
2022-09-25T13:43:20.953Z,1.00
2022-09-25T13:45:50.376Z,1.37
2022-09-25T13:48:37.996Z,1.40
2022-09-25T13:51:28.801Z,1.10
2022-09-25T13:54:00.322Z,1.03
2022-09-25T13:56:47.090Z,1.43
2022-09-25T13:59:37.627Z,1.40
2022-09-25T14:02:35.027Z,1.20
2022-09-25T14:05:04.463Z,1.30
2022-09-25T14:07:33.846Z,1.30
2022-09-25T14:10:03.069Z,1.30
2022-09-25T14:12:42.775Z,1.47
2022-09-25T14:15:21.367Z,1.17
2022-09-25T14:17:52.980Z,1.20
2022-09-25T14:20:33.474Z,1.27
2022-09-25T14:23:06.606Z,1.20
2022-09-25T14:25:38.280Z,1.20
2022-09-25T14:28:20.469Z,1.17
2022-09-25T14:31:14.443Z,1.30
2022-09-25T14:34:15.050Z,1.30
2022-09-25T14:37:00.474Z,1.20
2022-09-25T14:39:43.244Z,1.20
2022-09-25T14:42:34.113Z,1.00
2022-09-25T14:45:27.263Z,1.40
2022-09-25T14:48:00.840Z,1.10
2022-09-25T14:50:33.052Z,1.23
2022-09-25T14:53:04.879Z,0.90
2022-09-25T14:55:38.027Z,1.10
2022-09-25T14:58:10.336Z,1.50
2022-09-25T15:00:46.999Z,1.30
2022-09-25T15:03:19.180Z,1.13
2022-09-25T15:05:49.343Z,1.30
2022-09-25T15:08:23.686Z,1.50
2022-09-25T15:11:03.279Z,1.30
2022-09-25T15:13:34.508Z,1.50
2022-09-25T15:16:24.068Z,1.33
2022-09-25T15:18:59.214Z,1.27
2022-09-25T15:21:30.275Z,1.30
2022-09-25T15:24:01.125Z,1.30
2022-09-25T15:26:30.127Z,1.37
2022-09-25T15:28:59.143Z,1.50
2022-09-25T15:31:37.584Z,1.47
2022-09-25T15:34:12.707Z,1.20
2022-09-25T15:36:41.094Z,1.43
2022-09-25T15:39:16.366Z,1.50
2022-09-25T15:41:45.055Z,1.67
2022-09-25T15:44:18.634Z,1.40
2022-09-25T15:46:49.805Z,1.70
2022-09-25T15:49:21.774Z,2.17
2022-09-25T15:52:00.371Z,1.80
2022-09-25T15:54:38.434Z,1.70
2022-09-25T15:57:11.309Z,1.93
2022-09-25T16:00:04.382Z,1.60
2022-09-25T16:02:55.169Z,2.10
2022-09-25T16:05:29.861Z,1.70
2022-09-25T16:08:17.219Z,1.80
2022-09-25T16:10:50.069Z,1.90
2022-09-25T16:13:23.754Z,1.60
2022-09-25T16:15:53.343Z,1.80
2022-09-25T16:18:32.482Z,1.57
2022-09-25T16:21:21.082Z,1.77
2022-09-25T16:23:56.433Z,2.17
2022-09-25T16:26:28.964Z,1.80
2022-09-25T16:29:17.083Z,1.87
2022-09-25T16:31:47.042Z,1.93
2022-09-25T16:34:26.873Z,1.80
2022-09-25T16:36:58.324Z,1.80
2022-09-25T16:39:29.794Z,4.13
2022-09-25T16:41:59.538Z,3.43
2022-09-25T16:44:42.254Z,2.80
2022-09-25T16:47:19.835Z,3.60
2022-09-25T16:49:50.178Z,2.93
2022-09-25T16:52:22.550Z,3.10
2022-09-25T16:54:54.289Z,2.60
2022-09-25T16:57:24.543Z,2.43
2022-09-25T16:59:53.362Z,2.40
2022-09-25T17:02:33.439Z,2.60
2022-09-25T17:05:05.755Z,2.50
2022-09-25T17:07:36.081Z,5.83
2022-09-25T17:10:04.836Z,4.50
2022-09-25T17:12:33.079Z,4.33
2022-09-25T17:15:01.654Z,3.30
2022-09-25T17:17:31.144Z,3.13
2022-09-25T17:19:59.374Z,3.33
2022-09-25T17:22:30.573Z,3.47
2022-09-25T17:25:02.898Z,2.80
2022-09-25T17:27:31.123Z,3.40
2022-09-25T17:29:59.249Z,3.30
2022-09-25T17:32:29.405Z,3.07
2022-09-25T17:34:58.967Z,3.90
2022-09-25T17:37:28.565Z,3.17
2022-09-25T17:39:56.663Z,3.30
2022-09-25T17:42:26.802Z,3.60
2022-09-25T17:44:56.314Z,3.50
2022-09-25T17:47:24.943Z,3.23
2022-09-25T17:49:53.306Z,3.73
2022-09-25T17:52:22.269Z,3.53
2022-09-25T17:54:51.803Z,3.30
2022-09-25T17:57:20.468Z,3.33
2022-09-25T17:59:48.801Z,3.60
2022-09-25T18:02:18.078Z,3.33
2022-09-25T18:04:46.411Z,4.13
2022-09-25T18:07:15.397Z,3.87
2022-09-25T18:09:43.820Z,4.00
2022-09-25T18:12:13.709Z,3.97
2022-09-25T18:14:43.124Z,4.30
2022-09-25T18:17:16.225Z,3.50
2022-09-25T18:20:02.251Z,3.70
2022-09-25T18:22:30.409Z,3.70
2022-09-25T18:24:58.699Z,4.10
2022-09-25T18:27:30.959Z,3.97
2022-09-25T18:29:59.736Z,3.87
2022-09-25T18:32:27.839Z,3.70
2022-09-25T18:34:56.604Z,4.07
2022-09-25T18:37:24.791Z,3.67
2022-09-25T18:39:52.951Z,3.70
2022-09-25T18:42:21.253Z,4.17
2022-09-25T18:44:51.213Z,3.73
2022-09-25T18:47:19.477Z,4.77
2022-09-25T18:49:49.134Z,4.10
2022-09-25T18:52:17.806Z,3.83
2022-09-25T18:54:46.006Z,3.37
2022-09-25T18:57:14.981Z,4.00
2022-09-25T18:59:43.439Z,4.00
2022-09-25T19:02:21.324Z,3.70
2022-09-25T19:04:52.396Z,3.40
2022-09-25T19:07:20.774Z,3.93
2022-09-25T19:09:49.411Z,3.47
2022-09-25T19:12:18.164Z,3.80
2022-09-25T19:14:47.718Z,4.23
2022-09-25T19:17:18.941Z,4.57
2022-09-25T19:19:47.625Z,4.00
2022-09-25T19:22:17.766Z,3.90
2022-09-25T19:24:46.707Z,3.70
2022-09-25T19:27:16.953Z,3.97
2022-09-25T19:29:46.678Z,4.90
2022-09-25T19:32:18.086Z,4.23
2022-09-25T19:34:46.389Z,3.97
2022-09-25T19:37:15.299Z,4.10
2022-09-25T19:40:01.239Z,4.70
2022-09-25T19:42:33.724Z,4.70
2022-09-25T19:45:02.338Z,4.40
2022-09-25T19:47:32.044Z,4.83
2022-09-25T19:50:00.204Z,4.53
2022-09-25T19:52:28.985Z,5.17
2022-09-25T19:54:57.174Z,4.87
2022-09-25T19:57:25.547Z,5.07
2022-09-25T19:59:54.292Z,5.50
2022-09-25T20:02:22.471Z,5.07
2022-09-25T20:04:52.023Z,5.40
2022-09-25T20:07:20.515Z,5.33
2022-09-25T20:09:48.737Z,6.40
2022-09-25T20:12:16.854Z,6.40
2022-09-25T20:14:45.651Z,5.40
2022-09-25T20:17:13.732Z,5.77
2022-09-25T20:19:42.175Z,5.77
2022-09-25T20:22:12.015Z,5.90
2022-09-25T20:24:40.244Z,5.67
2022-09-25T20:27:08.677Z,5.90
2022-09-25T20:29:37.329Z,5.00
2022-09-25T20:32:05.727Z,5.57
2022-09-25T20:34:34.042Z,6.10
2022-09-25T20:37:03.768Z,5.90
2022-09-25T20:39:33.270Z,5.70
2022-09-25T20:42:01.367Z,6.10
2022-09-25T20:44:30.186Z,5.07
2022-09-25T20:46:58.349Z,5.87
2022-09-25T20:49:26.593Z,6.53
2022-09-25T20:51:55.068Z,7.40
2022-09-25T20:54:25.598Z,6.00
2022-09-25T20:56:55.138Z,6.17
2022-09-25T20:59:23.488Z,6.07
2022-09-25T21:01:51.810Z,5.27
2022-09-25T21:04:20.046Z,6.80
2022-09-25T21:06:48.281Z,6.13
2022-09-25T21:09:21.213Z,7.10
2022-09-25T21:11:50.196Z,6.93
2022-09-25T21:14:24.086Z,7.27
2022-09-25T21:16:53.366Z,7.20
2022-09-25T21:19:23.340Z,6.43
2022-09-25T21:21:51.993Z,6.67
2022-09-25T21:24:22.106Z,6.47
2022-09-25T21:26:50.915Z,6.00
2022-09-25T21:29:21.026Z,5.80
2022-09-25T21:31:50.842Z,5.90
2022-09-25T21:34:20.689Z,6.00
2022-09-25T21:36:49.139Z,5.40
2022-09-25T21:39:18.533Z,5.43
2022-09-25T21:41:49.375Z,5.70
2022-09-25T21:44:23.480Z,5.40
2022-09-25T21:46:52.196Z,5.97
2022-09-25T21:49:21.996Z,5.63
2022-09-25T21:51:51.127Z,5.13
2022-09-25T21:54:20.833Z,5.23
2022-09-25T21:56:49.563Z,5.07
2022-09-25T21:59:18.551Z,4.80
2022-09-25T22:01:48.686Z,5.47
2022-09-25T22:04:17.579Z,5.20
2022-09-25T22:06:47.965Z,5.50
2022-09-25T22:09:18.240Z,5.23
2022-09-25T22:11:47.089Z,5.97
2022-09-25T22:14:16.843Z,5.37
2022-09-25T22:16:48.617Z,7.03
2022-09-25T22:19:19.246Z,7.37
2022-09-25T22:21:49.052Z,6.17
2022-09-25T22:24:17.932Z,6.23
2022-09-25T22:26:47.514Z,6.53
2022-09-25T22:29:16.627Z,6.37
2022-09-25T22:31:45.805Z,5.63
2022-09-25T22:34:19.668Z,6.10
2022-09-25T22:36:49.338Z,5.80
2022-09-25T22:39:19.162Z,5.23
2022-09-25T22:41:51.773Z,5.37
2022-09-25T22:44:20.744Z,5.90
2022-09-25T22:46:49.778Z,6.00
2022-09-25T22:49:19.706Z,5.27
2022-09-25T22:51:47.964Z,5.90
2022-09-25T22:54:16.841Z,5.30
2022-09-25T22:56:45.725Z,5.70
2022-09-25T22:59:16.262Z,6.03
2022-09-25T23:01:48.564Z,5.70
2022-09-25T23:04:20.554Z,5.93
2022-09-25T23:06:49.139Z,5.37
2022-09-25T23:09:20.358Z,5.20
2022-09-25T23:11:48.563Z,5.60
2022-09-25T23:14:20.065Z,4.97
2022-09-25T23:16:49.739Z,5.47
2022-09-25T23:19:20.471Z,6.37
2022-09-25T23:21:48.957Z,6.40
2022-09-25T23:24:19.659Z,6.17
2022-09-25T23:26:48.115Z,7.00
2022-09-25T23:29:18.585Z,8.27
2022-09-25T23:31:47.777Z,8.10
2022-09-25T23:34:16.881Z,8.57
2022-09-25T23:36:46.768Z,8.20
2022-09-25T23:39:17.648Z,7.53
2022-09-25T23:41:46.645Z,7.60
2022-09-25T23:44:14.779Z,7.00
2022-09-25T23:46:44.482Z,7.73
2022-09-25T23:49:12.872Z,7.60
2022-09-25T23:51:41.022Z,6.90
2022-09-25T23:54:11.356Z,7.40
2022-09-25T23:56:40.939Z,6.70
2022-09-25T23:59:10.865Z,7.67
